createdAt,value
2022-12-01T00:01:34.681Z,1.00
2022-12-01T00:04:02.338Z,1.00
2022-12-01T00:06:31.983Z,1.00
2022-12-01T00:09:20.159Z,1.00
2022-12-01T00:11:48.995Z,1.00
2022-12-01T00:14:17.792Z,1.00
2022-12-01T00:16:45.389Z,1.00
2022-12-01T00:19:13.982Z,1.00
2022-12-01T00:21:41.583Z,1.00
2022-12-01T00:24:10.884Z,1.00
2022-12-01T00:26:41.482Z,1.00
2022-12-01T00:29:09.636Z,1.00
2022-12-01T00:31:37.780Z,1.00
2022-12-01T00:34:09.648Z,1.00
2022-12-01T00:36:39.076Z,1.00
2022-12-01T00:39:06.820Z,1.00
2022-12-01T00:41:34.153Z,1.00
2022-12-01T00:44:01.916Z,1.00
2022-12-01T00:46:29.288Z,1.00
2022-12-01T00:48:57.088Z,1.00
2022-12-01T00:51:24.712Z,1.00
2022-12-01T00:53:52.378Z,1.00
2022-12-01T00:56:21.334Z,1.00
2022-12-01T00:58:48.956Z,1.00
2022-12-01T01:01:16.391Z,1.00
2022-12-01T01:03:44.090Z,1.00
2022-12-01T01:06:13.379Z,1.00
2022-12-01T01:08:41.725Z,1.00
2022-12-01T01:11:10.103Z,1.00
2022-12-01T01:13:38.615Z,1.00
2022-12-01T01:16:15.812Z,1.00
2022-12-01T01:18:43.551Z,1.00
2022-12-01T01:21:17.503Z,1.00
2022-12-01T01:23:45.164Z,1.00
2022-12-01T01:26:18.698Z,1.00
2022-12-01T01:28:47.830Z,1.00
2022-12-01T01:31:18.877Z,1.00
2022-12-01T01:33:46.883Z,1.00
2022-12-01T01:36:15.763Z,1.00
2022-12-01T01:38:43.472Z,1.00
2022-12-01T01:41:12.246Z,1.00
2022-12-01T01:43:47.571Z,1.00
2022-12-01T01:46:18.742Z,1.00
2022-12-01T01:48:51.819Z,1.00
2022-12-01T01:51:26.614Z,1.00
2022-12-01T01:53:59.153Z,1.00
2022-12-01T01:56:26.976Z,1.00
2022-12-01T01:58:54.922Z,1.00
2022-12-01T02:01:22.429Z,1.00
2022-12-01T02:03:53.670Z,1.00
2022-12-01T02:06:22.891Z,1.00
2022-12-01T02:08:50.965Z,1.00
2022-12-01T02:11:24.126Z,1.00
2022-12-01T02:14:18.176Z,1.00
2022-12-01T02:17:12.536Z,1.00
2022-12-01T02:20:15.466Z,1.00
2022-12-01T02:23:03.943Z,1.00
2022-12-01T02:25:53.778Z,1.00
2022-12-01T02:28:45.047Z,1.00
2022-12-01T02:31:43.123Z,1.00
2022-12-01T02:34:26.099Z,1.00
2022-12-01T02:37:01.121Z,99.90
2022-12-01T02:42:08.564Z,99.90
2022-12-01T02:44:43.921Z,99.90
2022-12-01T02:47:17.434Z,99.90
2022-12-01T02:49:51.023Z,99.90
2022-12-01T02:54:51.224Z,99.90
2022-12-01T02:59:51.351Z,99.90
2022-12-01T03:02:32.440Z,99.90
2022-12-01T03:05:03.124Z,99.90
2022-12-01T03:07:37.444Z,99.90
2022-12-01T03:15:24.810Z,99.90
2022-12-01T03:18:17.106Z,99.90
2022-12-01T03:20:51.543Z,99.90
2022-12-01T03:23:27.707Z,99.90
2022-12-01T03:25:58.127Z,99.90
2022-12-01T03:28:33.361Z,99.90
2022-12-01T03:31:12.069Z,99.90
2022-12-01T03:33:55.514Z,99.90
2022-12-01T03:36:25.972Z,99.90
2022-12-01T03:39:00.391Z,99.90
2022-12-01T03:41:43.979Z,99.90
2022-12-01T03:44:24.911Z,99.90
2022-12-01T03:47:00.080Z,1.00
2022-12-01T03:49:28.905Z,1.00
2022-12-01T03:51:59.237Z,99.90
2022-12-01T03:54:31.963Z,99.90
2022-12-01T03:57:05.924Z,99.90
2022-12-01T03:59:36.978Z,1.00
2022-12-01T04:02:07.015Z,1.00
2022-12-01T04:04:35.014Z,1.00
2022-12-01T04:07:02.285Z,99.90
2022-12-01T04:09:29.938Z,99.90
2022-12-01T04:12:15.848Z,1.00
2022-12-01T04:14:43.638Z,1.00
2022-12-01T04:17:11.156Z,1.00
2022-12-01T04:19:38.891Z,1.00
2022-12-01T04:22:06.299Z,1.00
2022-12-01T04:24:34.001Z,1.00
2022-12-01T04:27:01.467Z,1.00
2022-12-01T04:29:29.303Z,1.00
2022-12-01T04:31:56.767Z,1.00
2022-12-01T04:34:24.846Z,1.00
2022-12-01T04:36:52.254Z,1.00
2022-12-01T04:39:20.025Z,1.00
2022-12-01T04:41:47.376Z,1.00
2022-12-01T04:44:15.688Z,1.00
2022-12-01T04:46:43.243Z,1.00
2022-12-01T04:49:11.051Z,1.00
2022-12-01T04:51:38.504Z,1.00
2022-12-01T04:54:06.166Z,1.00
2022-12-01T04:56:33.868Z,1.00
2022-12-01T04:59:01.788Z,1.00
2022-12-01T05:01:29.358Z,1.00
2022-12-01T05:03:57.212Z,1.00
2022-12-01T05:06:27.790Z,1.00
2022-12-01T05:09:01.075Z,1.00
2022-12-01T05:11:30.213Z,1.00
2022-12-01T05:13:58.342Z,1.00
2022-12-01T05:16:29.030Z,1.00
2022-12-01T05:19:21.640Z,1.00
2022-12-01T05:21:50.776Z,1.00
2022-12-01T05:24:20.014Z,1.00
2022-12-01T05:26:47.644Z,1.00
2022-12-01T05:29:15.604Z,1.00
2022-12-01T05:31:43.122Z,1.00
2022-12-01T05:34:10.761Z,1.00
2022-12-01T05:36:38.214Z,1.00
2022-12-01T05:39:06.253Z,1.00
2022-12-01T05:41:33.636Z,1.00
2022-12-01T05:44:01.256Z,1.00
2022-12-01T05:46:28.803Z,1.00
2022-12-01T05:48:56.591Z,1.00
2022-12-01T05:51:24.057Z,1.00
2022-12-01T05:53:51.682Z,1.00
2022-12-01T05:56:18.954Z,1.00
2022-12-01T05:58:47.240Z,1.00
2022-12-01T06:01:14.717Z,1.00
2022-12-01T06:03:42.458Z,1.00
2022-12-01T06:06:09.924Z,1.00
2022-12-01T06:08:37.767Z,1.00
2022-12-01T06:11:41.058Z,1.00
2022-12-01T06:14:08.834Z,1.00
2022-12-01T06:16:36.347Z,1.00
2022-12-01T06:19:04.354Z,1.00
2022-12-01T06:21:31.733Z,1.00
2022-12-01T06:23:59.429Z,1.00
2022-12-01T06:26:26.889Z,1.00
2022-12-01T06:28:54.509Z,1.00
2022-12-01T06:31:22.041Z,1.00
2022-12-01T06:33:49.841Z,1.00
2022-12-01T06:36:17.174Z,1.00
2022-12-01T06:38:45.076Z,1.00
2022-12-01T06:41:12.557Z,1.00
2022-12-01T06:43:40.372Z,1.00
2022-12-01T06:46:08.034Z,1.00
2022-12-01T06:48:35.808Z,1.00
2022-12-01T06:51:03.420Z,1.00
2022-12-01T06:53:31.084Z,1.00
2022-12-01T06:56:03.443Z,1.00
2022-12-01T06:58:32.125Z,1.00
2022-12-01T07:01:00.290Z,1.00
2022-12-01T07:03:28.016Z,1.00
2022-12-01T07:06:00.397Z,1.00
2022-12-01T07:08:30.416Z,1.00
2022-12-01T07:11:10.035Z,1.00
2022-12-01T07:13:37.780Z,1.00
2022-12-01T07:16:06.758Z,1.00
2022-12-01T07:18:35.762Z,1.00
2022-12-01T07:21:08.605Z,1.00
2022-12-01T07:23:36.994Z,1.00
2022-12-01T07:26:07.477Z,1.00
2022-12-01T07:28:35.778Z,1.00
2022-12-01T07:31:15.593Z,1.00
2022-12-01T07:33:43.975Z,1.00
2022-12-01T07:36:13.153Z,1.00
2022-12-01T07:38:41.167Z,1.00
2022-12-01T07:41:14.665Z,1.00
2022-12-01T07:43:42.678Z,1.00
2022-12-01T07:46:10.279Z,1.00
2022-12-01T07:48:40.346Z,1.00
2022-12-01T07:51:10.054Z,1.00
2022-12-01T07:53:38.135Z,1.00
2022-12-01T07:56:08.768Z,1.00
2022-12-01T07:58:37.529Z,1.00
2022-12-01T08:01:14.459Z,1.00
2022-12-01T08:03:42.840Z,1.00
2022-12-01T08:06:11.036Z,1.00
2022-12-01T08:08:41.105Z,1.00
2022-12-01T08:11:16.030Z,1.00
2022-12-01T08:13:44.621Z,1.00
2022-12-01T08:16:17.739Z,1.00
2022-12-01T08:18:46.039Z,1.00
2022-12-01T08:21:16.013Z,1.00
2022-12-01T08:23:44.740Z,1.00
2022-12-01T08:26:18.723Z,1.00
2022-12-01T08:28:47.175Z,1.00
2022-12-01T08:31:22.359Z,1.00
2022-12-01T08:34:00.005Z,1.00
2022-12-01T08:36:29.044Z,1.00
2022-12-01T08:38:57.243Z,1.00
2022-12-01T08:41:25.473Z,99.90
2022-12-01T08:43:58.416Z,99.90
2022-12-01T08:46:29.519Z,1.00
2022-12-01T08:48:58.084Z,99.90
2022-12-01T08:51:26.425Z,99.90
2022-12-01T08:53:57.419Z,99.90
2022-12-01T08:56:31.676Z,99.90
2022-12-01T08:59:00.296Z,99.90
2022-12-01T09:01:28.247Z,99.90
2022-12-01T09:04:13.659Z,99.90
2022-12-01T09:06:47.060Z,99.90
2022-12-01T09:09:27.911Z,99.90
2022-12-01T09:11:56.511Z,99.90
2022-12-01T09:14:24.487Z,99.90
2022-12-01T09:16:52.260Z,99.90
2022-12-01T09:19:24.808Z,99.90
2022-12-01T09:21:53.120Z,99.90
2022-12-01T09:24:20.962Z,99.90
2022-12-01T09:26:48.692Z,99.90
2022-12-01T09:29:17.234Z,99.90
2022-12-01T09:31:45.040Z,99.90
2022-12-01T09:34:16.155Z,99.90
2022-12-01T09:36:43.804Z,99.90
2022-12-01T09:39:17.249Z,99.90
2022-12-01T09:41:49.912Z,99.90
2022-12-01T09:44:39.551Z,99.90
2022-12-01T09:47:37.036Z,99.90
2022-12-01T09:50:16.236Z,99.90
2022-12-01T09:52:51.576Z,99.90
2022-12-01T09:55:23.337Z,99.90
2022-12-01T09:57:57.028Z,99.90
2022-12-01T10:00:31.936Z,99.90
2022-12-01T10:03:23.579Z,99.90
2022-12-01T10:09:22.009Z,99.90
2022-12-01T10:11:54.500Z,99.90
2022-12-01T10:14:22.335Z,99.90
2022-12-01T10:17:06.298Z,99.90
2022-12-01T10:19:44.257Z,99.90
2022-12-01T10:22:32.637Z,99.90
2022-12-01T10:25:02.716Z,99.90
2022-12-01T10:27:30.294Z,99.90
2022-12-01T10:30:05.828Z,99.90
2022-12-01T10:32:39.204Z,99.90
2022-12-01T10:35:06.854Z,99.90
2022-12-01T10:37:34.573Z,99.90
2022-12-01T10:40:02.638Z,99.90
2022-12-01T10:42:39.827Z,99.90
2022-12-01T10:45:28.039Z,99.90
2022-12-01T10:48:15.975Z,99.90
2022-12-01T10:51:13.664Z,99.90
2022-12-01T10:53:41.315Z,99.90
2022-12-01T10:56:18.434Z,99.90
2022-12-01T10:58:50.968Z,99.90
2022-12-01T11:01:24.664Z,99.90
2022-12-01T11:04:03.381Z,99.90
2022-12-01T11:06:31.879Z,99.90
2022-12-01T11:09:02.777Z,99.90
2022-12-01T11:11:39.989Z,99.90
2022-12-01T11:14:22.976Z,99.90
2022-12-01T11:16:52.520Z,99.90
2022-12-01T11:19:26.562Z,99.90
2022-12-01T11:21:57.600Z,99.90
2022-12-01T11:24:33.488Z,99.90
2022-12-01T11:27:01.322Z,99.90
2022-12-01T11:29:36.257Z,99.90
2022-12-01T11:32:25.749Z,99.90
2022-12-01T11:35:20.746Z,99.90
2022-12-01T11:38:21.165Z,99.90
2022-12-01T11:40:51.979Z,99.90
2022-12-01T11:43:41.505Z,99.90
2022-12-01T11:46:11.366Z,99.90
2022-12-01T11:48:39.205Z,99.90
2022-12-01T11:51:32.376Z,99.90
2022-12-01T11:54:14.744Z,99.90
2022-12-01T11:56:44.223Z,99.90
2022-12-01T11:59:17.665Z,99.90
2022-12-01T12:02:05.046Z,99.90
2022-12-01T12:04:51.773Z,99.90
2022-12-01T12:07:41.010Z,99.90
2022-12-01T12:10:17.117Z,99.90
2022-12-01T12:13:07.218Z,99.90
2022-12-01T12:15:34.466Z,99.90
2022-12-01T12:18:14.187Z,99.90
2022-12-01T12:21:00.183Z,99.90
2022-12-01T12:23:52.343Z,99.90
2022-12-01T12:26:34.985Z,99.90
2022-12-01T12:29:14.599Z,99.90
2022-12-01T12:32:01.444Z,99.90
2022-12-01T12:34:47.921Z,99.90
2022-12-01T12:37:26.791Z,99.90
2022-12-01T12:40:16.336Z,99.90
2022-12-01T12:42:58.565Z,99.90
2022-12-01T12:45:54.280Z,99.90
2022-12-01T12:52:08.313Z,99.90
2022-12-01T12:55:02.446Z,99.90
2022-12-01T12:57:38.732Z,99.90
2022-12-01T13:00:18.592Z,99.90
2022-12-01T13:02:51.966Z,99.90
2022-12-01T13:05:35.823Z,99.90
2022-12-01T13:08:14.655Z,99.90
2022-12-01T13:10:44.605Z,99.90
2022-12-01T13:13:54.706Z,99.90
2022-12-01T13:16:28.277Z,99.90
2022-12-01T13:19:05.117Z,99.90
2022-12-01T13:21:39.116Z,99.90
2022-12-01T13:24:08.198Z,99.90
2022-12-01T13:26:37.978Z,99.90
2022-12-01T13:29:08.161Z,99.90
2022-12-01T13:31:44.616Z,99.90
2022-12-01T13:34:41.234Z,99.90
2022-12-01T13:37:12.238Z,99.90
2022-12-01T13:39:41.878Z,99.90
2022-12-01T13:42:24.566Z,99.90
2022-12-01T13:44:53.614Z,99.90
2022-12-01T13:47:20.899Z,99.90
2022-12-01T13:49:51.209Z,99.90
2022-12-01T13:52:21.859Z,99.90
2022-12-01T13:55:07.831Z,99.90
2022-12-01T13:58:00.389Z,99.90
2022-12-01T14:00:35.188Z,1.00
2022-12-01T14:03:19.388Z,1.00
2022-12-01T14:05:53.362Z,99.90
2022-12-01T14:08:27.812Z,1.00
2022-12-01T14:11:01.060Z,1.00
2022-12-01T14:13:29.927Z,1.00
2022-12-01T14:16:00.395Z,1.00
2022-12-01T14:18:42.802Z,1.00
2022-12-01T14:21:12.630Z,1.00
2022-12-01T14:24:02.708Z,1.00
2022-12-01T14:26:32.017Z,1.00
2022-12-01T14:29:27.523Z,1.00
2022-12-01T14:31:55.086Z,99.90
2022-12-01T14:34:26.717Z,1.00
2022-12-01T14:37:12.613Z,1.00
2022-12-01T14:40:04.373Z,1.00
2022-12-01T14:42:57.404Z,99.90
2022-12-01T14:45:38.907Z,99.90
2022-12-01T14:48:17.276Z,99.90
2022-12-01T14:50:49.681Z,99.90
2022-12-01T14:53:23.129Z,99.90
2022-12-01T14:56:08.595Z,99.90
2022-12-01T14:58:36.484Z,99.90
2022-12-01T15:01:10.568Z,99.90
2022-12-01T15:03:45.707Z,99.90
2022-12-01T15:06:22.048Z,99.90
2022-12-01T15:09:33.699Z,99.90
2022-12-01T15:12:07.074Z,99.90
2022-12-01T15:14:47.459Z,99.90
2022-12-01T15:17:37.184Z,99.90
2022-12-01T15:20:25.387Z,99.90
2022-12-01T15:22:53.223Z,99.90
2022-12-01T15:25:21.071Z,99.90
2022-12-01T15:28:11.329Z,99.90
2022-12-01T15:30:41.107Z,99.90
2022-12-01T15:33:21.602Z,99.90
2022-12-01T15:35:54.264Z,99.90
2022-12-01T15:38:27.633Z,99.90
2022-12-01T15:43:44.506Z,99.90
2022-12-01T15:46:15.571Z,99.90
2022-12-01T15:48:44.283Z,99.90
2022-12-01T15:51:25.880Z,99.90
2022-12-01T15:53:56.654Z,99.90
2022-12-01T15:56:39.699Z,99.90
2022-12-01T15:59:12.186Z,99.90
2022-12-01T16:01:42.588Z,99.90
2022-12-01T16:04:22.883Z,99.90
2022-12-01T16:07:07.211Z,99.90
2022-12-01T16:09:41.752Z,99.90
2022-12-01T16:12:09.413Z,99.90
2022-12-01T16:14:37.297Z,99.90
2022-12-01T16:17:08.521Z,99.90
2022-12-01T16:19:36.413Z,99.90
2022-12-01T16:22:13.136Z,99.90
2022-12-01T16:24:51.635Z,99.90
2022-12-01T16:27:24.448Z,99.90
2022-12-01T16:29:53.185Z,99.90
2022-12-01T16:32:22.704Z,99.90
2022-12-01T16:34:52.929Z,99.90
2022-12-01T16:37:22.317Z,99.90
2022-12-01T16:39:50.746Z,99.90
2022-12-01T16:42:21.334Z,99.90
2022-12-01T16:44:50.724Z,99.90
2022-12-01T16:47:24.512Z,99.90
2022-12-01T16:49:52.965Z,99.90
2022-12-01T16:55:37.859Z,99.90
2022-12-01T16:58:05.944Z,99.90
2022-12-01T17:00:33.621Z,99.90
2022-12-01T17:03:01.759Z,99.90
2022-12-01T17:05:29.958Z,99.90
2022-12-01T17:07:58.994Z,99.90
2022-12-01T17:10:27.564Z,99.90
2022-12-01T17:12:55.798Z,99.90
2022-12-01T17:15:23.428Z,99.90
2022-12-01T17:17:51.629Z,99.90
2022-12-01T17:20:18.930Z,99.90
2022-12-01T17:22:46.608Z,99.90
2022-12-01T17:25:14.132Z,99.90
2022-12-01T17:27:43.894Z,99.90
2022-12-01T17:30:12.431Z,99.90
2022-12-01T17:32:40.553Z,99.90
2022-12-01T17:35:08.635Z,99.90
2022-12-01T17:37:37.227Z,1.00
2022-12-01T17:40:10.979Z,1.00
2022-12-01T17:42:38.825Z,1.00
2022-12-01T17:45:07.379Z,1.00
2022-12-01T17:47:35.416Z,1.00
2022-12-01T17:50:03.389Z,1.00
2022-12-01T17:52:31.421Z,1.00
2022-12-01T17:54:59.595Z,1.00
2022-12-01T17:57:27.578Z,1.00
2022-12-01T17:59:55.110Z,1.00
2022-12-01T18:02:23.083Z,1.00
2022-12-01T18:04:51.159Z,1.00
2022-12-01T18:07:19.406Z,1.00
2022-12-01T18:09:46.848Z,1.00
2022-12-01T18:12:14.553Z,1.00
2022-12-01T18:14:42.262Z,1.00
2022-12-01T18:17:10.178Z,1.00
2022-12-01T18:19:38.063Z,1.00
2022-12-01T18:22:05.899Z,1.00
2022-12-01T18:24:33.447Z,1.00
2022-12-01T18:27:01.342Z,1.00
2022-12-01T18:29:29.136Z,21.50
2022-12-01T18:31:58.866Z,99.90
2022-12-01T18:34:31.205Z,99.90
2022-12-01T18:36:59.134Z,99.90
2022-12-01T18:39:27.365Z,99.90
2022-12-01T18:41:56.449Z,99.90
2022-12-01T18:44:24.029Z,99.90
2022-12-01T18:46:52.118Z,99.90
2022-12-01T18:49:19.937Z,99.90
2022-12-01T18:51:47.868Z,99.90
2022-12-01T18:54:16.635Z,99.90
2022-12-01T18:56:46.266Z,99.90
2022-12-01T18:59:17.235Z,99.90
2022-12-01T19:01:47.832Z,99.90
2022-12-01T19:04:16.724Z,1.00
2022-12-01T19:06:46.227Z,99.90
2022-12-01T19:09:16.567Z,99.90
2022-12-01T19:11:44.947Z,99.90
2022-12-01T19:14:17.162Z,1.00
2022-12-01T19:16:46.527Z,1.00
2022-12-01T19:19:15.506Z,1.00
2022-12-01T19:21:45.941Z,1.00
2022-12-01T19:24:14.046Z,1.00
2022-12-01T19:26:42.118Z,1.00
2022-12-01T19:29:09.854Z,1.00
2022-12-01T19:31:38.069Z,1.00
2022-12-01T19:34:05.958Z,1.00
2022-12-01T19:36:33.964Z,1.00
2022-12-01T19:39:04.346Z,1.00
2022-12-01T19:41:38.858Z,1.00
2022-12-01T19:44:06.962Z,1.00
2022-12-01T19:46:35.069Z,1.00
2022-12-01T19:49:04.009Z,99.90
2022-12-01T19:51:35.549Z,99.90
2022-12-01T19:54:04.556Z,99.90
2022-12-01T19:56:33.437Z,99.90
2022-12-01T19:59:01.339Z,99.90
2022-12-01T20:01:29.503Z,99.90
2022-12-01T20:03:57.630Z,99.90
2022-12-01T20:06:29.208Z,1.00
2022-12-01T20:08:58.988Z,1.00
2022-12-01T20:11:29.824Z,1.00
2022-12-01T20:13:57.593Z,1.00
2022-12-01T20:16:27.539Z,1.00
2022-12-01T20:18:55.577Z,1.00
2022-12-01T20:21:26.343Z,1.00
2022-12-01T20:24:01.094Z,1.00
2022-12-01T20:26:38.189Z,1.00
2022-12-01T20:29:14.951Z,1.00
2022-12-01T20:31:43.316Z,1.00
2022-12-01T20:34:32.555Z,1.00
2022-12-01T20:37:00.905Z,1.00
2022-12-01T20:39:31.586Z,1.00
2022-12-01T20:41:59.494Z,1.00
2022-12-01T20:44:27.727Z,1.00
2022-12-01T20:46:56.448Z,1.00
2022-12-01T20:49:24.477Z,1.00
2022-12-01T20:51:52.429Z,15.10
2022-12-01T20:54:29.117Z,99.80
2022-12-01T20:56:59.000Z,99.90
2022-12-01T20:59:27.890Z,99.90
2022-12-01T21:01:55.568Z,99.90
2022-12-01T21:04:23.484Z,99.90
2022-12-01T21:06:51.393Z,99.90
2022-12-01T21:09:19.249Z,99.90
2022-12-01T21:12:07.742Z,99.90
2022-12-01T21:14:48.196Z,99.90
2022-12-01T21:17:21.572Z,99.90
2022-12-01T21:20:21.610Z,99.90
2022-12-01T21:22:53.394Z,99.90
2022-12-01T21:25:23.735Z,99.90
2022-12-01T21:27:51.557Z,57.80
2022-12-01T21:30:22.570Z,10.60
2022-12-01T21:32:50.617Z,46.10
2022-12-01T21:35:25.036Z,1.00
2022-12-01T21:38:01.823Z,1.00
2022-12-01T21:40:29.737Z,92.30
2022-12-01T21:43:10.362Z,99.90
2022-12-01T21:45:38.381Z,99.90
2022-12-01T21:48:21.477Z,99.90
2022-12-01T21:50:57.373Z,99.90
2022-12-01T21:53:32.366Z,99.90
2022-12-01T21:56:00.366Z,82.40
2022-12-01T21:58:37.551Z,9.80
2022-12-01T22:01:19.775Z,1.00
2022-12-01T22:03:47.996Z,1.00
2022-12-01T22:06:29.609Z,1.00
2022-12-01T22:09:10.678Z,1.00
2022-12-01T22:11:38.350Z,1.00
2022-12-01T22:14:16.226Z,1.00
2022-12-01T22:16:48.889Z,1.00
2022-12-01T22:19:16.383Z,1.00
2022-12-01T22:21:48.775Z,1.00
2022-12-01T22:24:20.972Z,1.00
2022-12-01T22:26:52.218Z,93.50
2022-12-01T22:29:27.826Z,74.30
2022-12-01T22:32:07.365Z,99.90
2022-12-01T22:34:34.768Z,99.90
2022-12-01T22:37:02.381Z,99.90
2022-12-01T22:39:31.899Z,78.30
2022-12-01T22:42:04.078Z,16.70
2022-12-01T22:44:31.857Z,1.00
2022-12-01T22:47:02.260Z,1.00
2022-12-01T22:49:30.488Z,99.90
2022-12-01T22:51:58.080Z,99.90
2022-12-01T22:54:46.012Z,1.00
2022-12-01T22:57:37.298Z,1.00
2022-12-01T23:00:16.582Z,1.00
2022-12-01T23:02:44.512Z,1.00
2022-12-01T23:05:30.066Z,1.00
2022-12-01T23:07:57.834Z,1.00
2022-12-01T23:10:31.015Z,1.00
2022-12-01T23:13:08.674Z,99.90
2022-12-01T23:15:41.618Z,99.90
2022-12-01T23:18:14.674Z,1.00
2022-12-01T23:20:44.160Z,1.00
2022-12-01T23:23:26.268Z,1.00
2022-12-01T23:25:53.611Z,1.00
2022-12-01T23:28:21.739Z,1.00
2022-12-01T23:30:53.281Z,1.00
2022-12-01T23:33:26.446Z,1.00
2022-12-01T23:35:58.105Z,1.00
2022-12-01T23:38:36.129Z,1.00
2022-12-01T23:41:07.084Z,1.00
2022-12-01T23:43:46.068Z,1.00
2022-12-01T23:46:18.425Z,1.00
2022-12-01T23:48:53.951Z,1.00
2022-12-01T23:51:30.189Z,99.90
2022-12-01T23:54:00.857Z,99.90
2022-12-01T23:56:31.723Z,99.90
2022-12-01T23:59:01.273Z,99.90
